sensor_id;sensor_type;location;lat;lon;timestamp;temperature;humidity
35325;DHT22;35135;47.510;19.036;2022-08-21T00:00:25;29.50;48.20
35325;DHT22;35135;47.510;19.036;2022-08-21T00:03:02;29.50;48.20
35325;DHT22;35135;47.510;19.036;2022-08-21T00:05:30;29.50;48.20
35325;DHT22;35135;47.510;19.036;2022-08-21T00:07:58;29.50;48.20
35325;DHT22;35135;47.510;19.036;2022-08-21T00:10:26;29.50;48.20
35325;DHT22;35135;47.510;19.036;2022-08-21T00:12:53;29.50;48.20
35325;DHT22;35135;47.510;19.036;2022-08-21T00:15:22;29.50;48.20
35325;DHT22;35135;47.510;19.036;2022-08-21T00:17:50;29.50;48.20
35325;DHT22;35135;47.510;19.036;2022-08-21T00:20:18;29.50;48.20
35325;DHT22;35135;47.510;19.036;2022-08-21T00:22:45;29.50;48.20
35325;DHT22;35135;47.510;19.036;2022-08-21T00:25:14;29.50;48.20
35325;DHT22;35135;47.510;19.036;2022-08-21T00:27:42;29.50;48.20
35325;DHT22;35135;47.510;19.036;2022-08-21T00:30:11;29.50;48.20
35325;DHT22;35135;47.510;19.036;2022-08-21T00:32:39;29.50;48.20
35325;DHT22;35135;47.510;19.036;2022-08-21T00:35:08;29.50;48.20
35325;DHT22;35135;47.510;19.036;2022-08-21T00:37:35;29.50;48.20
35325;DHT22;35135;47.510;19.036;2022-08-21T00:40:02;29.50;48.20
35325;DHT22;35135;47.510;19.036;2022-08-21T00:42:29;29.40;48.10
35325;DHT22;35135;47.510;19.036;2022-08-21T00:44:55;29.50;48.20
35325;DHT22;35135;47.510;19.036;2022-08-21T00:47:23;29.40;48.10
35325;DHT22;35135;47.510;19.036;2022-08-21T00:49:51;29.40;48.10
35325;DHT22;35135;47.510;19.036;2022-08-21T00:52:26;29.50;48.20
35325;DHT22;35135;47.510;19.036;2022-08-21T00:54:55;29.40;48.10
35325;DHT22;35135;47.510;19.036;2022-08-21T00:57:29;29.40;48.10
35325;DHT22;35135;47.510;19.036;2022-08-21T01:00:04;29.40;48.10
35325;DHT22;35135;47.510;19.036;2022-08-21T01:02:31;29.40;48.70
35325;DHT22;35135;47.510;19.036;2022-08-21T01:04:59;29.40;48.10
35325;DHT22;35135;47.510;19.036;2022-08-21T01:07:26;29.40;48.10
35325;DHT22;35135;47.510;19.036;2022-08-21T01:09:53;29.40;48.10
35325;DHT22;35135;47.510;19.036;2022-08-21T01:12:20;29.40;48.10
35325;DHT22;35135;47.510;19.036;2022-08-21T01:14:46;29.40;48.10
35325;DHT22;35135;47.510;19.036;2022-08-21T01:17:14;29.40;48.10
35325;DHT22;35135;47.510;19.036;2022-08-21T01:19:40;29.40;48.00
35325;DHT22;35135;47.510;19.036;2022-08-21T01:22:07;29.40;48.00
35325;DHT22;35135;47.510;19.036;2022-08-21T01:24:39;29.40;48.10
35325;DHT22;35135;47.510;19.036;2022-08-21T01:27:06;29.40;48.00
35325;DHT22;35135;47.510;19.036;2022-08-21T01:32:12;29.40;48.10
35325;DHT22;35135;47.510;19.036;2022-08-21T01:34:42;29.40;48.10
35325;DHT22;35135;47.510;19.036;2022-08-21T01:37:15;29.40;48.10
35325;DHT22;35135;47.510;19.036;2022-08-21T01:39:42;29.40;48.10
35325;DHT22;35135;47.510;19.036;2022-08-21T01:42:09;29.40;48.10
35325;DHT22;35135;47.510;19.036;2022-08-21T01:44:36;29.40;48.00
35325;DHT22;35135;47.510;19.036;2022-08-21T01:47:06;29.40;48.10
35325;DHT22;35135;47.510;19.036;2022-08-21T01:49:35;29.40;48.00
35325;DHT22;35135;47.510;19.036;2022-08-21T01:52:03;29.40;48.10
35325;DHT22;35135;47.510;19.036;2022-08-21T01:54:31;29.40;48.00
35325;DHT22;35135;47.510;19.036;2022-08-21T01:56:58;29.40;48.10
35325;DHT22;35135;47.510;19.036;2022-08-21T01:59:26;29.40;48.10
35325;DHT22;35135;47.510;19.036;2022-08-21T02:01:52;29.40;48.10
35325;DHT22;35135;47.510;19.036;2022-08-21T02:04:19;29.30;48.00
35325;DHT22;35135;47.510;19.036;2022-08-21T02:06:46;29.40;48.10
35325;DHT22;35135;47.510;19.036;2022-08-21T02:09:13;29.30;48.10
35325;DHT22;35135;47.510;19.036;2022-08-21T02:11:40;29.30;48.00
35325;DHT22;35135;47.510;19.036;2022-08-21T02:14:13;29.30;48.00
35325;DHT22;35135;47.510;19.036;2022-08-21T02:16:41;29.30;48.00
35325;DHT22;35135;47.510;19.036;2022-08-21T02:19:09;29.30;48.00
35325;DHT22;35135;47.510;19.036;2022-08-21T02:21:36;29.30;48.00
35325;DHT22;35135;47.510;19.036;2022-08-21T02:24:02;29.30;48.00
35325;DHT22;35135;47.510;19.036;2022-08-21T02:26:37;29.30;48.00
35325;DHT22;35135;47.510;19.036;2022-08-21T02:29:05;29.30;48.00
35325;DHT22;35135;47.510;19.036;2022-08-21T02:31:33;29.30;48.00
35325;DHT22;35135;47.510;19.036;2022-08-21T02:34:01;29.30;48.00
35325;DHT22;35135;47.510;19.036;2022-08-21T02:36:29;29.30;48.10
35325;DHT22;35135;47.510;19.036;2022-08-21T02:38:56;29.30;48.00
35325;DHT22;35135;47.510;19.036;2022-08-21T02:41:23;29.30;48.10
35325;DHT22;35135;47.510;19.036;2022-08-21T02:43:50;29.30;48.10
35325;DHT22;35135;47.510;19.036;2022-08-21T02:46:18;29.30;48.10
35325;DHT22;35135;47.510;19.036;2022-08-21T02:48:46;29.30;48.10
35325;DHT22;35135;47.510;19.036;2022-08-21T02:51:18;29.30;48.10
35325;DHT22;35135;47.510;19.036;2022-08-21T02:53:46;29.30;48.10
35325;DHT22;35135;47.510;19.036;2022-08-21T02:56:15;29.30;48.10
35325;DHT22;35135;47.510;19.036;2022-08-21T02:58:44;29.30;48.00
35325;DHT22;35135;47.510;19.036;2022-08-21T03:01:12;29.30;48.10
35325;DHT22;35135;47.510;19.036;2022-08-21T03:03:45;29.30;48.00
35325;DHT22;35135;47.510;19.036;2022-08-21T03:06:16;29.30;48.10
35325;DHT22;35135;47.510;19.036;2022-08-21T03:08:44;29.30;48.10
35325;DHT22;35135;47.510;19.036;2022-08-21T03:11:13;29.30;48.00
35325;DHT22;35135;47.510;19.036;2022-08-21T03:13:40;29.30;48.00
35325;DHT22;35135;47.510;19.036;2022-08-21T03:16:07;29.20;48.00
35325;DHT22;35135;47.510;19.036;2022-08-21T03:18:35;29.20;48.00
35325;DHT22;35135;47.510;19.036;2022-08-21T03:21:01;29.20;48.00
35325;DHT22;35135;47.510;19.036;2022-08-21T03:23:31;29.30;48.10
35325;DHT22;35135;47.510;19.036;2022-08-21T03:25:58;29.30;48.10
35325;DHT22;35135;47.510;19.036;2022-08-21T03:28:27;29.20;48.10
35325;DHT22;35135;47.510;19.036;2022-08-21T03:30:54;29.20;48.00
35325;DHT22;35135;47.510;19.036;2022-08-21T03:33:27;29.20;48.00
35325;DHT22;35135;47.510;19.036;2022-08-21T03:36:01;29.20;48.00
35325;DHT22;35135;47.510;19.036;2022-08-21T03:38:31;29.20;48.00
35325;DHT22;35135;47.510;19.036;2022-08-21T03:40:57;29.20;48.00
35325;DHT22;35135;47.510;19.036;2022-08-21T03:43:25;29.20;48.00
35325;DHT22;35135;47.510;19.036;2022-08-21T03:45:52;29.20;48.00
35325;DHT22;35135;47.510;19.036;2022-08-21T03:48:18;29.20;48.00
35325;DHT22;35135;47.510;19.036;2022-08-21T03:50:44;29.20;48.00
35325;DHT22;35135;47.510;19.036;2022-08-21T03:53:12;29.20;48.00
35325;DHT22;35135;47.510;19.036;2022-08-21T03:55:38;29.20;48.00
35325;DHT22;35135;47.510;19.036;2022-08-21T03:58:04;29.20;48.00
35325;DHT22;35135;47.510;19.036;2022-08-21T04:00:32;29.20;48.00
35325;DHT22;35135;47.510;19.036;2022-08-21T04:02:59;29.20;48.00
35325;DHT22;35135;47.510;19.036;2022-08-21T04:05:27;29.20;48.00
35325;DHT22;35135;47.510;19.036;2022-08-21T04:07:54;29.20;47.90
35325;DHT22;35135;47.510;19.036;2022-08-21T04:10:22;29.20;48.00
35325;DHT22;35135;47.510;19.036;2022-08-21T04:12:50;29.20;48.00
35325;DHT22;35135;47.510;19.036;2022-08-21T04:15:16;29.20;48.00
35325;DHT22;35135;47.510;19.036;2022-08-21T04:17:44;29.20;48.00
35325;DHT22;35135;47.510;19.036;2022-08-21T04:20:11;29.20;48.00
35325;DHT22;35135;47.510;19.036;2022-08-21T04:22:39;29.20;48.00
35325;DHT22;35135;47.510;19.036;2022-08-21T04:25:06;29.20;48.10
35325;DHT22;35135;47.510;19.036;2022-08-21T04:27:39;29.10;48.00
35325;DHT22;35135;47.510;19.036;2022-08-21T04:30:09;29.10;48.00
35325;DHT22;35135;47.510;19.036;2022-08-21T04:32:38;29.10;48.00
35325;DHT22;35135;47.510;19.036;2022-08-21T04:35:08;29.10;48.00
35325;DHT22;35135;47.510;19.036;2022-08-21T04:37:36;29.10;48.00
35325;DHT22;35135;47.510;19.036;2022-08-21T04:40:04;29.10;48.00
35325;DHT22;35135;47.510;19.036;2022-08-21T04:42:49;29.10;48.00
35325;DHT22;35135;47.510;19.036;2022-08-21T04:45:27;29.10;48.00
35325;DHT22;35135;47.510;19.036;2022-08-21T04:47:56;29.10;48.00
35325;DHT22;35135;47.510;19.036;2022-08-21T04:53:14;29.10;48.00
35325;DHT22;35135;47.510;19.036;2022-08-21T04:55:43;29.10;48.00
35325;DHT22;35135;47.510;19.036;2022-08-21T04:58:10;29.10;48.00
35325;DHT22;35135;47.510;19.036;2022-08-21T05:00:39;29.10;48.10
35325;DHT22;35135;47.510;19.036;2022-08-21T05:03:08;29.10;48.00
35325;DHT22;35135;47.510;19.036;2022-08-21T05:05:43;29.10;48.00
35325;DHT22;35135;47.510;19.036;2022-08-21T05:08:12;29.10;48.10
35325;DHT22;35135;47.510;19.036;2022-08-21T05:10:46;29.10;48.00
35325;DHT22;35135;47.510;19.036;2022-08-21T05:13:13;29.10;48.10
35325;DHT22;35135;47.510;19.036;2022-08-21T05:15:39;29.10;48.00
35325;DHT22;35135;47.510;19.036;2022-08-21T05:18:07;29.10;48.00
35325;DHT22;35135;47.510;19.036;2022-08-21T05:20:36;29.10;48.00
35325;DHT22;35135;47.510;19.036;2022-08-21T05:23:08;29.10;48.00
35325;DHT22;35135;47.510;19.036;2022-08-21T05:25:36;29.10;48.00
35325;DHT22;35135;47.510;19.036;2022-08-21T05:28:03;29.10;48.00
35325;DHT22;35135;47.510;19.036;2022-08-21T05:30:32;29.10;48.00
35325;DHT22;35135;47.510;19.036;2022-08-21T05:33:04;29.10;48.00
35325;DHT22;35135;47.510;19.036;2022-08-21T05:35:37;29.10;48.00
35325;DHT22;35135;47.510;19.036;2022-08-21T05:38:05;29.10;48.00
35325;DHT22;35135;47.510;19.036;2022-08-21T05:40:33;29.10;48.00
35325;DHT22;35135;47.510;19.036;2022-08-21T05:43:00;29.10;48.00
35325;DHT22;35135;47.510;19.036;2022-08-21T05:45:35;29.10;48.00
35325;DHT22;35135;47.510;19.036;2022-08-21T05:48:12;29.10;48.00
35325;DHT22;35135;47.510;19.036;2022-08-21T05:50:41;29.10;48.00
35325;DHT22;35135;47.510;19.036;2022-08-21T05:53:09;29.10;48.00
35325;DHT22;35135;47.510;19.036;2022-08-21T05:55:36;29.10;48.00
35325;DHT22;35135;47.510;19.036;2022-08-21T05:58:05;29.10;48.00
35325;DHT22;35135;47.510;19.036;2022-08-21T06:00:32;29.10;48.00
35325;DHT22;35135;47.510;19.036;2022-08-21T06:03:00;29.10;48.00
35325;DHT22;35135;47.510;19.036;2022-08-21T06:05:27;29.10;48.00
35325;DHT22;35135;47.510;19.036;2022-08-21T06:07:54;29.00;47.90
35325;DHT22;35135;47.510;19.036;2022-08-21T06:10:21;29.00;47.90
35325;DHT22;35135;47.510;19.036;2022-08-21T06:12:52;29.00;48.20
35325;DHT22;35135;47.510;19.036;2022-08-21T06:15:20;29.10;47.90
35325;DHT22;35135;47.510;19.036;2022-08-21T06:17:49;29.00;47.90
35325;DHT22;35135;47.510;19.036;2022-08-21T06:20:18;29.00;48.00
35325;DHT22;35135;47.510;19.036;2022-08-21T06:22:50;29.00;47.90
35325;DHT22;35135;47.510;19.036;2022-08-21T06:25:18;29.00;47.90
35325;DHT22;35135;47.510;19.036;2022-08-21T06:27:46;29.00;47.90
35325;DHT22;35135;47.510;19.036;2022-08-21T06:30:14;29.10;48.00
35325;DHT22;35135;47.510;19.036;2022-08-21T06:32:42;29.00;47.90
35325;DHT22;35135;47.510;19.036;2022-08-21T06:35:12;29.00;47.90
35325;DHT22;35135;47.510;19.036;2022-08-21T06:37:43;29.10;47.90
35325;DHT22;35135;47.510;19.036;2022-08-21T06:40:18;29.10;47.90
35325;DHT22;35135;47.510;19.036;2022-08-21T06:42:46;29.00;47.90
35325;DHT22;35135;47.510;19.036;2022-08-21T06:45:16;29.00;47.90
35325;DHT22;35135;47.510;19.036;2022-08-21T06:47:43;29.00;47.90
35325;DHT22;35135;47.510;19.036;2022-08-21T06:50:18;29.10;48.00
35325;DHT22;35135;47.510;19.036;2022-08-21T06:52:45;29.10;47.90
35325;DHT22;35135;47.510;19.036;2022-08-21T06:55:12;29.10;47.90
35325;DHT22;35135;47.510;19.036;2022-08-21T06:57:38;29.10;47.90
35325;DHT22;35135;47.510;19.036;2022-08-21T07:00:06;29.10;47.90
35325;DHT22;35135;47.510;19.036;2022-08-21T07:02:35;29.10;47.90
35325;DHT22;35135;47.510;19.036;2022-08-21T07:05:03;29.10;47.80
35325;DHT22;35135;47.510;19.036;2022-08-21T07:07:34;29.10;47.80
35325;DHT22;35135;47.510;19.036;2022-08-21T07:10:02;29.10;47.80
35325;DHT22;35135;47.510;19.036;2022-08-21T07:12:29;29.10;47.80
35325;DHT22;35135;47.510;19.036;2022-08-21T07:14:57;29.10;47.80
35325;DHT22;35135;47.510;19.036;2022-08-21T07:17:25;29.10;47.70
35325;DHT22;35135;47.510;19.036;2022-08-21T07:19:53;29.10;47.70
35325;DHT22;35135;47.510;19.036;2022-08-21T07:22:20;29.10;47.70
35325;DHT22;35135;47.510;19.036;2022-08-21T07:24:48;29.10;47.70
35325;DHT22;35135;47.510;19.036;2022-08-21T07:27:15;29.10;47.70
35325;DHT22;35135;47.510;19.036;2022-08-21T07:29:43;29.10;47.70
35325;DHT22;35135;47.510;19.036;2022-08-21T07:32:16;29.10;47.70
35325;DHT22;35135;47.510;19.036;2022-08-21T07:34:44;29.10;47.80
35325;DHT22;35135;47.510;19.036;2022-08-21T07:37:12;29.10;47.70
35325;DHT22;35135;47.510;19.036;2022-08-21T07:39:47;29.10;47.70
35325;DHT22;35135;47.510;19.036;2022-08-21T07:42:15;29.10;47.70
35325;DHT22;35135;47.510;19.036;2022-08-21T07:44:46;29.10;47.70
35325;DHT22;35135;47.510;19.036;2022-08-21T07:47:16;29.10;47.70
35325;DHT22;35135;47.510;19.036;2022-08-21T07:49:43;29.10;47.70
35325;DHT22;35135;47.510;19.036;2022-08-21T07:52:18;29.10;47.70
35325;DHT22;35135;47.510;19.036;2022-08-21T07:54:50;29.10;47.70
35325;DHT22;35135;47.510;19.036;2022-08-21T07:57:17;29.10;47.70
35325;DHT22;35135;47.510;19.036;2022-08-21T07:59:47;29.10;47.70
35325;DHT22;35135;47.510;19.036;2022-08-21T08:02:22;29.10;47.70
35325;DHT22;35135;47.510;19.036;2022-08-21T08:04:49;29.10;47.70
35325;DHT22;35135;47.510;19.036;2022-08-21T08:07:17;29.10;47.80
35325;DHT22;35135;47.510;19.036;2022-08-21T08:09:43;29.20;47.80
35325;DHT22;35135;47.510;19.036;2022-08-21T08:12:27;29.20;47.70
35325;DHT22;35135;47.510;19.036;2022-08-21T08:14:57;29.20;47.70
35325;DHT22;35135;47.510;19.036;2022-08-21T08:17:24;29.20;47.70
35325;DHT22;35135;47.510;19.036;2022-08-21T08:20:00;29.20;47.70
35325;DHT22;35135;47.510;19.036;2022-08-21T08:22:27;29.20;47.70
35325;DHT22;35135;47.510;19.036;2022-08-21T08:24:54;29.20;47.70
35325;DHT22;35135;47.510;19.036;2022-08-21T08:27:22;29.20;47.70
35325;DHT22;35135;47.510;19.036;2022-08-21T08:29:58;29.20;47.70
35325;DHT22;35135;47.510;19.036;2022-08-21T08:32:25;29.20;47.70
35325;DHT22;35135;47.510;19.036;2022-08-21T08:34:53;29.20;47.70
35325;DHT22;35135;47.510;19.036;2022-08-21T08:37:22;29.20;47.80
35325;DHT22;35135;47.510;19.036;2022-08-21T08:39:54;29.20;47.80
35325;DHT22;35135;47.510;19.036;2022-08-21T08:42:29;29.20;47.80
35325;DHT22;35135;47.510;19.036;2022-08-21T08:45:31;29.30;47.90
35325;DHT22;35135;47.510;19.036;2022-08-21T08:48:02;29.20;47.80
35325;DHT22;35135;47.510;19.036;2022-08-21T08:53:18;29.30;47.90
35325;DHT22;35135;47.510;19.036;2022-08-21T08:55:54;29.30;47.90
35325;DHT22;35135;47.510;19.036;2022-08-21T08:58:27;29.30;47.90
35325;DHT22;35135;47.510;19.036;2022-08-21T09:01:00;29.30;48.00
35325;DHT22;35135;47.510;19.036;2022-08-21T09:03:39;29.30;48.10
35325;DHT22;35135;47.510;19.036;2022-08-21T09:21:43;29.30;48.10
35325;DHT22;35135;47.510;19.036;2022-08-21T09:25:00;29.30;48.10
35325;DHT22;35135;47.510;19.036;2022-08-21T09:27:10;29.30;48.10
35325;DHT22;35135;47.510;19.036;2022-08-21T09:29:41;29.20;48.00
35325;DHT22;35135;47.510;19.036;2022-08-21T09:34:41;29.30;48.20
35325;DHT22;35135;47.510;19.036;2022-08-21T09:37:16;29.30;48.10
35325;DHT22;35135;47.510;19.036;2022-08-21T09:39:44;29.30;48.20
35325;DHT22;35135;47.510;19.036;2022-08-21T09:42:10;29.30;48.80
35325;DHT22;35135;47.510;19.036;2022-08-21T09:44:40;29.30;48.20
35325;DHT22;35135;47.510;19.036;2022-08-21T09:47:11;29.30;48.20
35325;DHT22;35135;47.510;19.036;2022-08-21T09:49:41;29.30;48.20
35325;DHT22;35135;47.510;19.036;2022-08-21T09:52:19;29.30;48.20
35325;DHT22;35135;47.510;19.036;2022-08-21T09:54:51;29.30;48.30
35325;DHT22;35135;47.510;19.036;2022-08-21T09:57:21;29.30;48.30
35325;DHT22;35135;47.510;19.036;2022-08-21T10:02:54;29.20;48.20
35325;DHT22;35135;47.510;19.036;2022-08-21T10:05:23;29.20;48.20
35325;DHT22;35135;47.510;19.036;2022-08-21T10:08:00;29.20;48.20
35325;DHT22;35135;47.510;19.036;2022-08-21T10:10:36;29.30;48.30
35325;DHT22;35135;47.510;19.036;2022-08-21T10:13:16;29.30;48.30
35325;DHT22;35135;47.510;19.036;2022-08-21T10:16:02;29.30;48.30
35325;DHT22;35135;47.510;19.036;2022-08-21T10:18:37;29.30;48.30
35325;DHT22;35135;47.510;19.036;2022-08-21T10:21:23;29.30;48.30
35325;DHT22;35135;47.510;19.036;2022-08-21T10:24:05;29.20;48.30
35325;DHT22;35135;47.510;19.036;2022-08-21T10:26:39;29.30;48.30
35325;DHT22;35135;47.510;19.036;2022-08-21T10:29:17;29.30;48.40
35325;DHT22;35135;47.510;19.036;2022-08-21T10:34:21;29.30;48.30
35325;DHT22;35135;47.510;19.036;2022-08-21T10:37:15;29.30;48.30
35325;DHT22;35135;47.510;19.036;2022-08-21T10:39:43;29.30;48.30
35325;DHT22;35135;47.510;19.036;2022-08-21T10:48:01;29.30;48.40
35325;DHT22;35135;47.510;19.036;2022-08-21T10:50:31;29.30;48.40
35325;DHT22;35135;47.510;19.036;2022-08-21T10:55:57;29.30;48.30
35325;DHT22;35135;47.510;19.036;2022-08-21T11:01:27;29.30;48.40
35325;DHT22;35135;47.510;19.036;2022-08-21T11:04:07;29.30;48.40
35325;DHT22;35135;47.510;19.036;2022-08-21T11:06:39;29.30;48.40
35325;DHT22;35135;47.510;19.036;2022-08-21T11:09:17;29.30;48.40
35325;DHT22;35135;47.510;19.036;2022-08-21T11:11:47;29.30;48.50
35325;DHT22;35135;47.510;19.036;2022-08-21T11:17:56;29.30;48.50
35325;DHT22;35135;47.510;19.036;2022-08-21T11:21:20;29.30;48.50
35325;DHT22;35135;47.510;19.036;2022-08-21T11:23:14;29.30;48.50
35325;DHT22;35135;47.510;19.036;2022-08-21T11:25:52;29.30;48.50
35325;DHT22;35135;47.510;19.036;2022-08-21T11:31:11;29.30;48.40
35325;DHT22;35135;47.510;19.036;2022-08-21T11:33:53;29.30;48.50
35325;DHT22;35135;47.510;19.036;2022-08-21T11:36:38;29.30;48.40
35325;DHT22;35135;47.510;19.036;2022-08-21T11:39:16;29.30;48.40
35325;DHT22;35135;47.510;19.036;2022-08-21T11:44:34;29.30;48.40
35325;DHT22;35135;47.510;19.036;2022-08-21T11:54:49;29.30;48.40
35325;DHT22;35135;47.510;19.036;2022-08-21T12:00:11;29.30;48.40
35325;DHT22;35135;47.510;19.036;2022-08-21T12:02:35;29.30;48.40
35325;DHT22;35135;47.510;19.036;2022-08-21T12:05:07;29.30;48.50
35325;DHT22;35135;47.510;19.036;2022-08-21T12:07:44;29.30;48.50
35325;DHT22;35135;47.510;19.036;2022-08-21T12:10:17;29.20;48.50
35325;DHT22;35135;47.510;19.036;2022-08-21T12:12:48;29.30;48.50
35325;DHT22;35135;47.510;19.036;2022-08-21T12:15:27;29.30;48.50
35325;DHT22;35135;47.510;19.036;2022-08-21T12:17:57;29.30;48.60
35325;DHT22;35135;47.510;19.036;2022-08-21T12:20:36;29.30;48.60
35325;DHT22;35135;47.510;19.036;2022-08-21T12:23:24;29.30;48.60
35325;DHT22;35135;47.510;19.036;2022-08-21T12:26:09;29.30;48.60
35325;DHT22;35135;47.510;19.036;2022-08-21T12:28:37;29.30;48.60
35325;DHT22;35135;47.510;19.036;2022-08-21T12:31:16;29.30;48.60
35325;DHT22;35135;47.510;19.036;2022-08-21T12:33:47;29.30;48.60
35325;DHT22;35135;47.510;19.036;2022-08-21T12:36:17;29.30;48.60
35325;DHT22;35135;47.510;19.036;2022-08-21T12:38:54;29.30;48.60
35325;DHT22;35135;47.510;19.036;2022-08-21T12:41:30;29.30;48.60
35325;DHT22;35135;47.510;19.036;2022-08-21T12:44:05;29.30;48.60
35325;DHT22;35135;47.510;19.036;2022-08-21T12:47:13;29.30;48.60
35325;DHT22;35135;47.510;19.036;2022-08-21T12:49:34;29.30;48.60
35325;DHT22;35135;47.510;19.036;2022-08-21T12:52:05;29.30;48.60
35325;DHT22;35135;47.510;19.036;2022-08-21T12:54:42;29.30;48.70
35325;DHT22;35135;47.510;19.036;2022-08-21T12:57:19;29.30;48.60
35325;DHT22;35135;47.510;19.036;2022-08-21T12:59:51;29.30;48.60
35325;DHT22;35135;47.510;19.036;2022-08-21T13:02:20;29.30;48.70
35325;DHT22;35135;47.510;19.036;2022-08-21T13:04:55;29.30;48.70
35325;DHT22;35135;47.510;19.036;2022-08-21T13:07:29;29.30;48.70
35325;DHT22;35135;47.510;19.036;2022-08-21T13:10:02;29.20;48.60
35325;DHT22;35135;47.510;19.036;2022-08-21T13:12:31;29.20;48.60
35325;DHT22;35135;47.510;19.036;2022-08-21T13:14:59;29.20;48.70
35325;DHT22;35135;47.510;19.036;2022-08-21T13:17:26;29.20;48.70
35325;DHT22;35135;47.510;19.036;2022-08-21T13:19:53;29.20;48.60
35325;DHT22;35135;47.510;19.036;2022-08-21T13:22:23;29.20;49.20
35325;DHT22;35135;47.510;19.036;2022-08-21T13:24:54;29.20;48.70
35325;DHT22;35135;47.510;19.036;2022-08-21T13:27:28;29.20;48.60
35325;DHT22;35135;47.510;19.036;2022-08-21T13:30:04;29.20;48.50
35325;DHT22;35135;47.510;19.036;2022-08-21T13:32:34;29.20;48.50
35325;DHT22;35135;47.510;19.036;2022-08-21T13:35:25;29.20;48.50
35325;DHT22;35135;47.510;19.036;2022-08-21T13:37:53;29.20;48.50
35325;DHT22;35135;47.510;19.036;2022-08-21T13:40:30;29.20;48.50
35325;DHT22;35135;47.510;19.036;2022-08-21T13:43:03;29.20;48.50
35325;DHT22;35135;47.510;19.036;2022-08-21T13:45:33;29.20;48.50
35325;DHT22;35135;47.510;19.036;2022-08-21T13:48:07;29.20;48.60
35325;DHT22;35135;47.510;19.036;2022-08-21T13:50:36;29.20;48.60
35325;DHT22;35135;47.510;19.036;2022-08-21T13:53:19;29.20;48.60
35325;DHT22;35135;47.510;19.036;2022-08-21T13:55:47;29.20;48.60
35325;DHT22;35135;47.510;19.036;2022-08-21T13:58:23;29.20;48.70
35325;DHT22;35135;47.510;19.036;2022-08-21T14:00:56;29.20;48.70
35325;DHT22;35135;47.510;19.036;2022-08-21T14:03:41;29.20;48.70
35325;DHT22;35135;47.510;19.036;2022-08-21T14:06:19;29.20;48.80
35325;DHT22;35135;47.510;19.036;2022-08-21T14:08:55;29.20;48.80
35325;DHT22;35135;47.510;19.036;2022-08-21T14:11:23;29.20;48.80
35325;DHT22;35135;47.510;19.036;2022-08-21T14:14:02;29.20;48.80
35325;DHT22;35135;47.510;19.036;2022-08-21T14:16:43;29.20;48.80
35325;DHT22;35135;47.510;19.036;2022-08-21T14:19:22;29.20;48.80
35325;DHT22;35135;47.510;19.036;2022-08-21T14:21:49;29.20;48.80
35325;DHT22;35135;47.510;19.036;2022-08-21T14:27:05;29.20;48.90
35325;DHT22;35135;47.510;19.036;2022-08-21T14:29:37;29.10;48.80
35325;DHT22;35135;47.510;19.036;2022-08-21T14:32:09;29.20;48.90
35325;DHT22;35135;47.510;19.036;2022-08-21T14:34:42;29.10;48.90
35325;DHT22;35135;47.510;19.036;2022-08-21T14:37:11;29.10;48.90
35325;DHT22;35135;47.510;19.036;2022-08-21T14:39:48;29.20;49.00
35325;DHT22;35135;47.510;19.036;2022-08-21T14:42:17;29.10;49.00
35325;DHT22;35135;47.510;19.036;2022-08-21T14:44:44;29.10;48.90
35325;DHT22;35135;47.510;19.036;2022-08-21T14:47:13;29.10;49.00
35325;DHT22;35135;47.510;19.036;2022-08-21T14:49:41;29.10;49.00
35325;DHT22;35135;47.510;19.036;2022-08-21T14:52:09;29.10;49.00
35325;DHT22;35135;47.510;19.036;2022-08-21T14:54:36;29.10;49.10
35325;DHT22;35135;47.510;19.036;2022-08-21T14:57:08;29.10;49.10
35325;DHT22;35135;47.510;19.036;2022-08-21T14:59:37;29.10;49.10
35325;DHT22;35135;47.510;19.036;2022-08-21T15:02:04;29.10;49.10
35325;DHT22;35135;47.510;19.036;2022-08-21T15:04:31;29.10;49.20
35325;DHT22;35135;47.510;19.036;2022-08-21T15:06:58;29.10;49.20
35325;DHT22;35135;47.510;19.036;2022-08-21T15:09:32;29.10;49.20
35325;DHT22;35135;47.510;19.036;2022-08-21T15:12:04;29.10;49.10
35325;DHT22;35135;47.510;19.036;2022-08-21T15:14:38;29.10;49.20
35325;DHT22;35135;47.510;19.036;2022-08-21T15:17:07;29.10;49.20
35325;DHT22;35135;47.510;19.036;2022-08-21T15:19:35;29.10;49.20
35325;DHT22;35135;47.510;19.036;2022-08-21T15:22:04;29.10;49.20
35325;DHT22;35135;47.510;19.036;2022-08-21T15:24:36;29.10;49.30
35325;DHT22;35135;47.510;19.036;2022-08-21T15:27:04;29.10;49.30
35325;DHT22;35135;47.510;19.036;2022-08-21T15:29:41;29.10;49.30
35325;DHT22;35135;47.510;19.036;2022-08-21T15:32:22;29.10;49.30
35325;DHT22;35135;47.510;19.036;2022-08-21T15:34:56;29.10;49.30
35325;DHT22;35135;47.510;19.036;2022-08-21T15:37:24;29.10;49.40
35325;DHT22;35135;47.510;19.036;2022-08-21T15:39:52;29.10;49.40
35325;DHT22;35135;47.510;19.036;2022-08-21T15:42:25;29.10;49.40
35325;DHT22;35135;47.510;19.036;2022-08-21T15:44:56;29.10;49.40
35325;DHT22;35135;47.510;19.036;2022-08-21T15:47:30;29.10;49.40
35325;DHT22;35135;47.510;19.036;2022-08-21T15:49:57;29.10;49.50
35325;DHT22;35135;47.510;19.036;2022-08-21T15:52:28;29.10;49.50
35325;DHT22;35135;47.510;19.036;2022-08-21T15:54:57;29.10;49.50
35325;DHT22;35135;47.510;19.036;2022-08-21T15:57:23;29.10;49.50
35325;DHT22;35135;47.510;19.036;2022-08-21T15:59:51;29.10;49.50
35325;DHT22;35135;47.510;19.036;2022-08-21T16:02:25;29.10;49.50
35325;DHT22;35135;47.510;19.036;2022-08-21T16:04:53;29.10;49.50
35325;DHT22;35135;47.510;19.036;2022-08-21T16:07:21;29.10;49.50
35325;DHT22;35135;47.510;19.036;2022-08-21T16:09:53;29.10;49.40
35325;DHT22;35135;47.510;19.036;2022-08-21T16:12:25;29.10;49.50
35325;DHT22;35135;47.510;19.036;2022-08-21T16:14:59;29.10;49.50
35325;DHT22;35135;47.510;19.036;2022-08-21T16:17:33;29.10;49.60
35325;DHT22;35135;47.510;19.036;2022-08-21T16:20:07;29.10;49.50
35325;DHT22;35135;47.510;19.036;2022-08-21T16:22:45;29.00;49.40
35325;DHT22;35135;47.510;19.036;2022-08-21T16:25:14;29.10;49.50
35325;DHT22;35135;47.510;19.036;2022-08-21T16:27:43;29.00;49.50
35325;DHT22;35135;47.510;19.036;2022-08-21T16:30:17;29.00;49.50
35325;DHT22;35135;47.510;19.036;2022-08-21T16:32:47;29.00;49.50
35325;DHT22;35135;47.510;19.036;2022-08-21T16:35:18;29.00;49.50
35325;DHT22;35135;47.510;19.036;2022-08-21T16:37:48;29.00;49.50
35325;DHT22;35135;47.510;19.036;2022-08-21T16:40:15;29.00;49.50
35325;DHT22;35135;47.510;19.036;2022-08-21T16:42:49;29.00;49.60